sensor_id;sensor_type;location;lat;lon;timestamp;pressure;altitude;pressure_sealevel;temperature;humidity
44663;BME280;30381;52.754;18.258;2023-02-02T03:01:50;99327.56;;;2.72;100.00
44663;BME280;30381;52.754;18.258;2023-02-02T03:17:02;99309.05;;;2.67;100.00
44663;BME280;30381;52.754;18.258;2023-02-02T03:33:29;99288.38;;;2.62;100.00
44663;BME280;30381;52.754;18.258;2023-02-02T03:37:02;99287.41;;;2.60;100.00
44663;BME280;30381;52.754;18.258;2023-02-02T03:39:53;99281.02;;;2.59;100.00
44663;BME280;30381;52.754;18.258;2023-02-02T03:42:49;99273.85;;;2.55;100.00
44663;BME280;30381;52.754;18.258;2023-02-02T03:51:51;99243.48;;;2.41;100.00
44663;BME280;30381;52.754;18.258;2023-02-02T03:55:02;99237.20;;;2.38;100.00
44663;BME280;30381;52.754;18.258;2023-02-02T04:10:58;99225.45;;;2.22;100.00
44663;BME280;30381;52.754;18.258;2023-02-02T04:13:58;99219.64;;;2.19;100.00
44663;BME280;30381;52.754;18.258;2023-02-02T04:25:52;99212.98;;;1.99;100.00
44663;BME280;30381;52.754;18.258;2023-02-02T04:29:12;99205.05;;;1.91;100.00
44663;BME280;30381;52.754;18.258;2023-02-02T04:32:22;99204.07;;;1.83;100.00
44663;BME280;30381;52.754;18.258;2023-02-02T04:35:32;99202.59;;;1.76;100.00
44663;BME280;30381;52.754;18.258;2023-02-02T04:38:36;99202.71;;;1.67;100.00
44663;BME280;30381;52.754;18.258;2023-02-02T04:41:14;99204.91;;;1.61;100.00
44663;BME280;30381;52.754;18.258;2023-02-02T04:44:38;99205.77;;;1.56;100.00
44663;BME280;30381;52.754;18.258;2023-02-02T04:47:08;99200.61;;;1.52;100.00
44663;BME280;30381;52.754;18.258;2023-02-02T04:49:52;99206.77;;;1.50;100.00
44663;BME280;30381;52.754;18.258;2023-02-02T04:52:51;99204.93;;;1.47;100.00
44663;BME280;30381;52.754;18.258;2023-02-02T04:55:45;99201.11;;;1.42;100.00
44663;BME280;30381;52.754;18.258;2023-02-02T04:58:29;99197.76;;;1.38;100.00
44663;BME280;30381;52.754;18.258;2023-02-02T05:01:07;99197.60;;;1.36;100.00
44663;BME280;30381;52.754;18.258;2023-02-02T05:03:36;99196.59;;;1.33;100.00
44663;BME280;30381;52.754;18.258;2023-02-02T05:06:36;99199.50;;;1.32;100.00
44663;BME280;30381;52.754;18.258;2023-02-02T05:12:10;99196.34;;;1.34;100.00
44663;BME280;30381;52.754;18.258;2023-02-02T05:14:41;99194.40;;;1.37;100.00
44663;BME280;30381;52.754;18.258;2023-02-02T05:17:39;99197.21;;;1.40;100.00
44663;BME280;30381;52.754;18.258;2023-02-02T05:21:12;99200.03;;;1.44;100.00
44663;BME280;30381;52.754;18.258;2023-02-02T05:24:28;99199.27;;;1.50;100.00
44663;BME280;30381;52.754;18.258;2023-02-02T05:27:36;99199.69;;;1.55;100.00
44663;BME280;30381;52.754;18.258;2023-02-02T05:31:08;99205.52;;;1.60;100.00
44663;BME280;30381;52.754;18.258;2023-02-02T05:34:14;99202.31;;;1.64;100.00
44663;BME280;30381;52.754;18.258;2023-02-02T05:37:03;99205.13;;;1.67;100.00
44663;BME280;30381;52.754;18.258;2023-02-02T05:39:38;99203.25;;;1.69;100.00
44663;BME280;30381;52.754;18.258;2023-02-02T05:42:04;99205.59;;;1.71;100.00
44663;BME280;30381;52.754;18.258;2023-02-02T05:44:50;99213.80;;;1.73;100.00
44663;BME280;30381;52.754;18.258;2023-02-02T05:48:17;99217.79;;;1.77;100.00
44663;BME280;30381;52.754;18.258;2023-02-02T05:51:09;99223.39;;;1.81;100.00
44663;BME280;30381;52.754;18.258;2023-02-02T05:54:12;99228.64;;;1.88;100.00
44663;BME280;30381;52.754;18.258;2023-02-02T05:57:18;99232.10;;;1.94;100.00
44663;BME280;30381;52.754;18.258;2023-02-02T06:00:32;99239.70;;;1.99;100.00
44663;BME280;30381;52.754;18.258;2023-02-02T06:03:40;99248.90;;;2.04;100.00
44663;BME280;30381;52.754;18.258;2023-02-02T06:06:12;99255.33;;;2.08;100.00
44663;BME280;30381;52.754;18.258;2023-02-02T06:09:28;99261.13;;;2.11;100.00
44663;BME280;30381;52.754;18.258;2023-02-02T06:12:23;99266.66;;;2.12;100.00
44663;BME280;30381;52.754;18.258;2023-02-02T06:14:49;99282.41;;;2.14;100.00
44663;BME280;30381;52.754;18.258;2023-02-02T06:17:32;99284.32;;;2.15;100.00
44663;BME280;30381;52.754;18.258;2023-02-02T06:20:28;99288.13;;;2.16;100.00
44663;BME280;30381;52.754;18.258;2023-02-02T06:22:55;99301.67;;;2.16;100.00
44663;BME280;30381;52.754;18.258;2023-02-02T06:25:28;99306.27;;;2.16;100.00
44663;BME280;30381;52.754;18.258;2023-02-02T06:28:34;99320.75;;;2.15;100.00
44663;BME280;30381;52.754;18.258;2023-02-02T06:31:51;99332.31;;;2.15;100.00
44663;BME280;30381;52.754;18.258;2023-02-02T06:37:42;99351.63;;;2.13;100.00
44663;BME280;30381;52.754;18.258;2023-02-02T06:40:33;99365.62;;;2.12;100.00
44663;BME280;30381;52.754;18.258;2023-02-02T06:44:19;99372.30;;;2.12;100.00
44663;BME280;30381;52.754;18.258;2023-02-02T06:47:49;99385.23;;;2.10;100.00
44663;BME280;30381;52.754;18.258;2023-02-02T06:51:18;99388.22;;;2.09;100.00
44663;BME280;30381;52.754;18.258;2023-02-02T06:54:28;99399.75;;;2.10;100.00
44663;BME280;30381;52.754;18.258;2023-02-02T06:57:59;99408.63;;;2.09;100.00
44663;BME280;30381;52.754;18.258;2023-02-02T07:01:14;99417.21;;;2.08;100.00
44663;BME280;30381;52.754;18.258;2023-02-02T07:04:17;99418.23;;;2.08;100.00
44663;BME280;30381;52.754;18.258;2023-02-02T07:07:23;99433.18;;;2.12;100.00
44663;BME280;30381;52.754;18.258;2023-02-02T07:10:29;99441.25;;;2.17;100.00
44663;BME280;30381;52.754;18.258;2023-02-02T07:13:36;99446.17;;;2.19;100.00
44663;BME280;30381;52.754;18.258;2023-02-02T07:16:07;99460.40;;;2.20;100.00
44663;BME280;30381;52.754;18.258;2023-02-02T07:19:13;99471.25;;;2.19;100.00
44663;BME280;30381;52.754;18.258;2023-02-02T07:22:19;99480.02;;;2.19;100.00
44663;BME280;30381;52.754;18.258;2023-02-02T07:25:46;99492.08;;;2.20;100.00
44663;BME280;30381;52.754;18.258;2023-02-02T07:29:08;99504.59;;;2.22;100.00
44663;BME280;30381;52.754;18.258;2023-02-02T07:32:08;99508.75;;;2.23;100.00
44663;BME280;30381;52.754;18.258;2023-02-02T07:35:14;99517.67;;;2.25;100.00
44663;BME280;30381;52.754;18.258;2023-02-02T07:38:42;99529.73;;;2.31;100.00
44663;BME280;30381;52.754;18.258;2023-02-02T07:41:28;99533.36;;;2.42;100.00
44663;BME280;30381;52.754;18.258;2023-02-02T07:43:56;99538.63;;;2.51;100.00
44663;BME280;30381;52.754;18.258;2023-02-02T07:46:23;99547.02;;;2.63;100.00
44663;BME280;30381;52.754;18.258;2023-02-02T07:49:31;99552.11;;;2.73;100.00
44663;BME280;30381;52.754;18.258;2023-02-02T07:53:09;99562.02;;;2.80;100.00
44663;BME280;30381;52.754;18.258;2023-02-02T07:56:07;99570.73;;;2.87;100.00
44663;BME280;30381;52.754;18.258;2023-02-02T07:58:52;99578.13;;;2.93;100.00
44663;BME280;30381;52.754;18.258;2023-02-02T08:01:42;99585.29;;;2.98;100.00
44663;BME280;30381;52.754;18.258;2023-02-02T08:04:12;99588.51;;;2.94;100.00
44663;BME280;30381;52.754;18.258;2023-02-02T08:06:39;99594.23;;;2.90;100.00
44663;BME280;30381;52.754;18.258;2023-02-02T08:09:07;99601.10;;;2.86;100.00
44663;BME280;30381;52.754;18.258;2023-02-02T08:11:35;99602.57;;;2.83;100.00
44663;BME280;30381;52.754;18.258;2023-02-02T08:14:02;99607.89;;;2.84;100.00
44663;BME280;30381;52.754;18.258;2023-02-02T08:16:30;99616.69;;;2.88;100.00
44663;BME280;30381;52.754;18.258;2023-02-02T08:18:57;99617.28;;;2.92;100.00
44663;BME280;30381;52.754;18.258;2023-02-02T08:21:24;99620.70;;;2.91;100.00
44663;BME280;30381;52.754;18.258;2023-02-02T08:23:52;99628.23;;;2.85;100.00
44663;BME280;30381;52.754;18.258;2023-02-02T08:26:21;99630.86;;;2.80;100.00
44663;BME280;30381;52.754;18.258;2023-02-02T08:28:54;99634.25;;;2.78;100.00
44663;BME280;30381;52.754;18.258;2023-02-02T08:31:24;99635.67;;;2.76;100.00
44663;BME280;30381;52.754;18.258;2023-02-02T08:33:52;99642.62;;;2.75;100.00
44663;BME280;30381;52.754;18.258;2023-02-02T08:36:24;99649.77;;;2.76;100.00
44663;BME280;30381;52.754;18.258;2023-02-02T08:38:52;99654.70;;;2.78;100.00
44663;BME280;30381;52.754;18.258;2023-02-02T08:41:22;99661.83;;;2.79;100.00
44663;BME280;30381;52.754;18.258;2023-02-02T08:43:52;99661.70;;;2.80;100.00
44663;BME280;30381;52.754;18.258;2023-02-02T08:46:40;99670.06;;;2.83;100.00
44663;BME280;30381;52.754;18.258;2023-02-02T08:49:13;99666.10;;;2.86;100.00
44663;BME280;30381;52.754;18.258;2023-02-02T08:51:41;99670.69;;;2.90;100.00
44663;BME280;30381;52.754;18.258;2023-02-02T08:54:10;99673.09;;;2.94;100.00
44663;BME280;30381;52.754;18.258;2023-02-02T08:56:40;99678.48;;;2.98;100.00
44663;BME280;30381;52.754;18.258;2023-02-02T08:59:10;99681.24;;;3.03;100.00
44663;BME280;30381;52.754;18.258;2023-02-02T09:01:45;99685.15;;;3.08;100.00
44663;BME280;30381;52.754;18.258;2023-02-02T09:04:32;99692.77;;;3.14;100.00
44663;BME280;30381;52.754;18.258;2023-02-02T09:07:00;99700.30;;;3.18;100.00
44663;BME280;30381;52.754;18.258;2023-02-02T09:09:29;99699.63;;;3.19;100.00
44663;BME280;30381;52.754;18.258;2023-02-02T09:11:55;99702.17;;;3.19;100.00
44663;BME280;30381;52.754;18.258;2023-02-02T09:14:22;99706.73;;;3.22;100.00
44663;BME280;30381;52.754;18.258;2023-02-02T09:17:02;99713.74;;;3.26;100.00
44663;BME280;30381;52.754;18.258;2023-02-02T09:19:29;99720.02;;;3.29;100.00
44663;BME280;30381;52.754;18.258;2023-02-02T09:21:57;99724.66;;;3.31;100.00
44663;BME280;30381;52.754;18.258;2023-02-02T09:24:29;99733.90;;;3.34;100.00
44663;BME280;30381;52.754;18.258;2023-02-02T09:26:59;99743.46;;;3.34;100.00
44663;BME280;30381;52.754;18.258;2023-02-02T09:29:45;99752.23;;;3.34;100.00
44663;BME280;30381;52.754;18.258;2023-02-02T09:32:31;99761.60;;;3.34;100.00
44663;BME280;30381;52.754;18.258;2023-02-02T09:34:59;99768.51;;;3.35;100.00
44663;BME280;30381;52.754;18.258;2023-02-02T09:37:29;99781.82;;;3.39;100.00
44663;BME280;30381;52.754;18.258;2023-02-02T09:40:16;99789.52;;;3.43;100.00
44663;BME280;30381;52.754;18.258;2023-02-02T09:49:16;99821.55;;;3.52;100.00
44663;BME280;30381;52.754;18.258;2023-02-02T09:51:52;99832.44;;;3.60;100.00
44663;BME280;30381;52.754;18.258;2023-02-02T09:54:29;99837.85;;;3.69;100.00
44663;BME280;30381;52.754;18.258;2023-02-02T10:01:25;99851.28;;;3.90;100.00
44663;BME280;30381;52.754;18.258;2023-02-02T10:04:05;99858.94;;;4.00;100.00
44663;BME280;30381;52.754;18.258;2023-02-02T10:06:44;99869.39;;;4.08;100.00
44663;BME280;30381;52.754;18.258;2023-02-02T10:12:32;99879.85;;;4.20;100.00
44663;BME280;30381;52.754;18.258;2023-02-02T10:23:16;99906.71;;;4.13;100.00
44663;BME280;30381;52.754;18.258;2023-02-02T10:26:16;99907.23;;;4.08;100.00
44663;BME280;30381;52.754;18.258;2023-02-02T10:32:09;99925.89;;;4.00;100.00
44663;BME280;30381;52.754;18.258;2023-02-02T10:34:50;99926.81;;;4.08;100.00
44663;BME280;30381;52.754;18.258;2023-02-02T10:37:37;99930.67;;;4.15;100.00
44663;BME280;30381;52.754;18.258;2023-02-02T10:45:47;99949.81;;;4.50;100.00
44663;BME280;30381;52.754;18.258;2023-02-02T10:48:16;99957.34;;;4.62;100.00
44663;BME280;30381;52.754;18.258;2023-02-02T10:51:05;99965.80;;;4.74;100.00
44663;BME280;30381;52.754;18.258;2023-02-02T10:53:42;99973.59;;;4.86;100.00
44663;BME280;30381;52.754;18.258;2023-02-02T10:56:12;99984.08;;;4.80;100.00
44663;BME280;30381;52.754;18.258;2023-02-02T10:58:49;99986.55;;;4.79;100.00
44663;BME280;30381;52.754;18.258;2023-02-02T11:01:18;99991.30;;;4.79;100.00
44663;BME280;30381;52.754;18.258;2023-02-02T11:03:48;99997.41;;;4.75;100.00
44663;BME280;30381;52.754;18.258;2023-02-02T11:06:35;100006.36;;;4.72;100.00
44663;BME280;30381;52.754;18.258;2023-02-02T11:09:23;100012.02;;;4.79;100.00
44663;BME280;30381;52.754;18.258;2023-02-02T11:12:24;100013.50;;;4.91;100.00
44663;BME280;30381;52.754;18.258;2023-02-02T11:14:55;100022.58;;;4.97;100.00
44663;BME280;30381;52.754;18.258;2023-02-02T11:17:36;100025.77;;;5.01;100.00
44663;BME280;30381;52.754;18.258;2023-02-02T11:20:21;100034.95;;;5.06;100.00
44663;BME280;30381;52.754;18.258;2023-02-02T11:22:58;100040.09;;;5.06;100.00
44663;BME280;30381;52.754;18.258;2023-02-02T11:25:29;100046.41;;;5.03;100.00
44663;BME280;30381;52.754;18.258;2023-02-02T11:27:57;100049.45;;;4.96;100.00
44663;BME280;30381;52.754;18.258;2023-02-02T11:30:29;100058.45;;;4.85;100.00
44663;BME280;30381;52.754;18.258;2023-02-02T11:32:57;100055.19;;;4.73;100.00
44663;BME280;30381;52.754;18.258;2023-02-02T11:35:26;100053.75;;;4.68;100.00
44663;BME280;30381;52.754;18.258;2023-02-02T11:41:04;100064.75;;;4.58;100.00
44663;BME280;30381;52.754;18.258;2023-02-02T11:43:37;100066.33;;;4.52;100.00
44663;BME280;30381;52.754;18.258;2023-02-02T11:46:21;100070.39;;;4.46;100.00
44663;BME280;30381;52.754;18.258;2023-02-02T11:49:13;100072.13;;;4.37;100.00
44663;BME280;30381;52.754;18.258;2023-02-02T11:51:41;100072.92;;;4.30;100.00
44663;BME280;30381;52.754;18.258;2023-02-02T11:54:16;100083.55;;;4.25;100.00
44663;BME280;30381;52.754;18.258;2023-02-02T11:56:51;100080.58;;;4.24;100.00
44663;BME280;30381;52.754;18.258;2023-02-02T12:02:27;100102.13;;;4.10;100.00
44663;BME280;30381;52.754;18.258;2023-02-02T12:05:11;100116.85;;;3.81;100.00
44663;BME280;30381;52.754;18.258;2023-02-02T12:07:39;100125.69;;;3.46;100.00
44663;BME280;30381;52.754;18.258;2023-02-02T12:12:48;100139.70;;;2.92;100.00
44663;BME280;30381;52.754;18.258;2023-02-02T12:18:34;100140.77;;;2.63;100.00
44663;BME280;30381;52.754;18.258;2023-02-02T12:21:07;100141.67;;;2.56;100.00
44663;BME280;30381;52.754;18.258;2023-02-02T12:23:43;100142.29;;;2.57;100.00
44663;BME280;30381;52.754;18.258;2023-02-02T12:26:29;100142.30;;;2.59;100.00
44663;BME280;30381;52.754;18.258;2023-02-02T12:32:24;100160.65;;;2.45;100.00
44663;BME280;30381;52.754;18.258;2023-02-02T12:38:10;100165.09;;;2.26;100.00
44663;BME280;30381;52.754;18.258;2023-02-02T12:43:37;100166.71;;;2.19;100.00
44663;BME280;30381;52.754;18.258;2023-02-02T12:49:07;100161.97;;;2.36;100.00
44663;BME280;30381;52.754;18.258;2023-02-02T12:52:44;100170.25;;;2.51;100.00
44663;BME280;30381;52.754;18.258;2023-02-02T12:58:26;100173.22;;;2.64;100.00
44663;BME280;30381;52.754;18.258;2023-02-02T13:01:49;100173.96;;;2.71;100.00
44663;BME280;30381;52.754;18.258;2023-02-02T13:04:22;100182.31;;;2.79;100.00
44663;BME280;30381;52.754;18.258;2023-02-02T13:12:16;100195.39;;;3.03;100.00
44663;BME280;30381;52.754;18.258;2023-02-02T13:15:07;100195.03;;;3.03;100.00
44663;BME280;30381;52.754;18.258;2023-02-02T13:17:53;100195.70;;;2.98;100.00
44663;BME280;30381;52.754;18.258;2023-02-02T13:21:06;100200.45;;;2.95;100.00
44663;BME280;30381;52.754;18.258;2023-02-02T13:23:14;100213.40;;;2.96;100.00
44663;BME280;30381;52.754;18.258;2023-02-02T13:26:13;100218.46;;;2.97;100.00
44663;BME280;30381;52.754;18.258;2023-02-02T13:31:45;100231.13;;;3.03;100.00
44663;BME280;30381;52.754;18.258;2023-02-02T13:34:40;100244.66;;;3.01;100.00
44663;BME280;30381;52.754;18.258;2023-02-02T13:40:27;100248.92;;;2.92;100.00
44663;BME280;30381;52.754;18.258;2023-02-02T13:54:46;100275.89;;;2.82;100.00
44663;BME280;30381;52.754;18.258;2023-02-02T13:57:46;100281.26;;;2.78;100.00
44663;BME280;30381;52.754;18.258;2023-02-02T14:00:40;100285.80;;;2.76;100.00
44663;BME280;30381;52.754;18.258;2023-02-02T14:03:27;100294.98;;;2.73;100.00
44663;BME280;30381;52.754;18.258;2023-02-02T14:16:46;100320.52;;;2.77;100.00
44663;BME280;30381;52.754;18.258;2023-02-02T14:49:50;100422.77;;;1.65;100.00
44663;BME280;30381;52.754;18.258;2023-02-02T14:53:24;100439.90;;;1.60;100.00
44663;BME280;30381;52.754;18.258;2023-02-02T15:14:17;100484.77;;;1.65;100.00
44663;BME280;30381;52.754;18.258;2023-02-02T15:16:51;100495.26;;;1.52;100.00
44663;BME280;30381;52.754;18.258;2023-02-02T15:19:42;100500.95;;;1.41;100.00
44663;BME280;30381;52.754;18.258;2023-02-02T15:22:29;100506.23;;;1.32;100.00
44663;BME280;30381;52.754;18.258;2023-02-02T15:25:03;100516.75;;;1.24;100.00
44663;BME280;30381;52.754;18.258;2023-02-02T15:27:36;100527.21;;;1.17;100.00
44663;BME280;30381;52.754;18.258;2023-02-02T15:30:25;100535.77;;;1.10;100.00
44663;BME280;30381;52.754;18.258;2023-02-02T15:33:43;100545.34;;;1.01;100.00
44663;BME280;30381;52.754;18.258;2023-02-02T15:36:29;100547.92;;;0.98;100.00
44663;BME280;30381;52.754;18.258;2023-02-02T15:39:30;100544.85;;;0.94;100.00
44663;BME280;30381;52.754;18.258;2023-02-02T15:42:04;100551.98;;;0.89;100.00
44663;BME280;30381;52.754;18.258;2023-02-02T15:44:55;100559.52;;;0.85;100.00
44663;BME280;30381;52.754;18.258;2023-02-02T15:47:30;100571.00;;;0.84;100.00
44663;BME280;30381;52.754;18.258;2023-02-02T15:50:01;100581.48;;;0.83;100.00
44663;BME280;30381;52.754;18.258;2023-02-02T15:52:32;100588.14;;;0.83;100.00
44663;BME280;30381;52.754;18.258;2023-02-02T21:04:50;101185.51;;;-0.91;100.00
44663;BME280;30381;52.754;18.258;2023-02-02T21:07:57;101188.86;;;-0.96;100.00
44663;BME280;30381;52.754;18.258;2023-02-02T21:16:09;101206.27;;;-1.09;100.00
44663;BME280;30381;52.754;18.258;2023-02-02T21:19:01;101214.29;;;-1.15;100.00
44663;BME280;30381;52.754;18.258;2023-02-02T21:21:54;101215.80;;;-1.22;100.00
44663;BME280;30381;52.754;18.258;2023-02-02T21:24:51;101209.23;;;-1.27;100.00
44663;BME280;30381;52.754;18.258;2023-02-02T21:27:45;101213.67;;;-1.31;100.00
44663;BME280;30381;52.754;18.258;2023-02-02T21:30:51;101213.74;;;-1.36;100.00
44663;BME280;30381;52.754;18.258;2023-02-02T21:37:00;101233.48;;;-1.39;100.00
44663;BME280;30381;52.754;18.258;2023-02-02T21:39:51;101230.08;;;-1.38;100.00
44663;BME280;30381;52.754;18.258;2023-02-02T21:42:58;101237.35;;;-1.37;100.00
44663;BME280;30381;52.754;18.258;2023-02-02T21:45:51;101242.25;;;-1.35;100.00
44663;BME280;30381;52.754;18.258;2023-02-02T21:49:46;101244.87;;;-1.32;100.00
44663;BME280;30381;52.754;18.258;2023-02-02T21:59:42;101248.55;;;-1.28;100.00
44663;BME280;30381;52.754;18.258;2023-02-02T22:03:01;101250.04;;;-1.26;100.00
44663;BME280;30381;52.754;18.258;2023-02-02T22:12:18;101247.21;;;-1.28;100.00
44663;BME280;30381;52.754;18.258;2023-02-02T22:15:40;101248.14;;;-1.31;100.00
44663;BME280;30381;52.754;18.258;2023-02-02T22:18:57;101246.06;;;-1.35;100.00
44663;BME280;30381;52.754;18.258;2023-02-02T22:22:12;101247.74;;;-1.40;100.00
44663;BME280;30381;52.754;18.258;2023-02-02T22:25:33;101243.83;;;-1.47;100.00
44663;BME280;30381;52.754;18.258;2023-02-02T22:28:58;101243.25;;;-1.54;100.00
44663;BME280;30381;52.754;18.258;2023-02-02T22:31:51;101241.77;;;-1.59;100.00
44663;BME280;30381;52.754;18.258;2023-02-02T22:34:42;101242.09;;;-1.64;100.00
44663;BME280;30381;52.754;18.258;2023-02-02T22:37:13;101241.58;;;-1.70;100.00
44663;BME280;30381;52.754;18.258;2023-02-02T22:39:56;101243.14;;;-1.74;100.00
44663;BME280;30381;52.754;18.258;2023-02-02T22:43:18;101240.55;;;-1.80;100.00
44663;BME280;30381;52.754;18.258;2023-02-02T22:46:13;101245.80;;;-1.85;100.00
44663;BME280;30381;52.754;18.258;2023-02-02T22:49:23;101248.14;;;-1.92;100.00
44663;BME280;30381;52.754;18.258;2023-02-02T22:53:18;101255.23;;;-1.98;100.00
44663;BME280;30381;52.754;18.258;2023-02-02T22:56:17;101260.45;;;-2.02;100.00
44663;BME280;30381;52.754;18.258;2023-02-02T22:59:12;101260.80;;;-2.06;100.00
44663;BME280;30381;52.754;18.258;2023-02-02T23:05:26;101264.19;;;-2.10;100.00
44663;BME280;30381;52.754;18.258;2023-02-02T23:09:00;101267.44;;;-2.13;100.00
44663;BME280;30381;52.754;18.258;2023-02-02T23:14:27;101269.64;;;-2.18;100.00
44663;BME280;30381;52.754;18.258;2023-02-02T23:22:04;101272.09;;;-2.22;100.00
44663;BME280;30381;52.754;18.258;2023-02-02T23:25:28;101266.93;;;-2.25;100.00
44663;BME280;30381;52.754;18.258;2023-02-02T23:28:15;101278.20;;;-2.23;100.00
44663;BME280;30381;52.754;18.258;2023-02-02T23:40:06;101283.33;;;-2.19;100.00
44663;BME280;30381;52.754;18.258;2023-02-02T23:43:13;101286.05;;;-2.20;100.00
44663;BME280;30381;52.754;18.258;2023-02-02T23:46:38;101285.64;;;-2.23;100.00
44663;BME280;30381;52.754;18.258;2023-02-02T23:50:26;101284.30;;;-2.26;100.00
44663;BME280;30381;52.754;18.258;2023-02-02T23:58:04;101282.85;;;-2.37;100.00
